Time;durP1;ratioP1;P1;durP2;ratioP2;P2;SDS_P1;SDS_P2;PMS_P1;PMS_P2;Temp;Humidity;BMP_temperature;BMP_pressure;BME280_temperature;BME280_humidity;BME280_pressure;Samples;Min_cycle;Max_cycle;Signal;HPM_P1;HPM_P2
2023/07/05 00:02:16;;;;;;;15.90;14.40;;;24.90;58.10;;;;;;222678;1248;22513;-55
2023/07/05 00:07:20;;;;;;;15.30;13.80;;;24.90;57.90;;;;;;222519;1261;24173;-51
2023/07/05 00:12:26;;;;;;;16.40;14.80;;;24.90;57.90;;;;;;222404;1254;22586;-55
2023/07/05 00:17:34;;;;;;;16.40;14.70;;;24.90;57.90;;;;;;222584;1263;22616;-53
2023/07/05 00:22:39;;;;;;;15.80;14.40;;;24.90;57.90;;;;;;222730;1260;25335;-53
2023/07/05 00:27:43;;;;;;;15.50;14.10;;;25.00;58.00;;;;;;222397;1260;24251;-53
2023/07/05 00:32:47;;;;;;;14.90;13.50;;;25.00;58.00;;;;;;222293;1260;22512;-53
2023/07/05 00:37:52;;;;;;;15.80;14.10;;;25.00;58.10;;;;;;222194;1257;22524;-52
2023/07/05 00:42:56;;;;;;;15.20;13.80;;;24.90;58.10;;;;;;223589;1260;25272;-54
2023/07/05 00:48:01;;;;;;;15.20;13.70;;;25.00;57.90;;;;;;225848;1254;22508;-51
2023/07/05 00:53:06;;;;;;;15.40;13.90;;;25.10;57.90;;;;;;222118;1253;22512;-51
2023/07/05 00:58:11;;;;;;;14.70;13.30;;;25.10;58.30;;;;;;226826;1260;22515;-54
2023/07/05 01:03:20;;;;;;;15.10;13.60;;;25.10;58.00;;;;;;222265;1264;24257;-52
2023/07/05 01:08:25;;;;;;;15.30;13.80;;;25.10;58.10;;;;;;222580;1257;24209;-53
2023/07/05 01:13:46;;;;;;;15.30;13.90;;;25.10;58.40;;;;;;222488;1261;22523;-52
2023/07/05 01:19:17;;;;;;;15.10;13.70;;;25.00;58.70;;;;;;222609;1257;24631;-54
2023/07/05 01:24:40;;;;;;;;;;;25.00;58.70;;;;;;222382;1263;26510;-55
2023/07/05 01:30:09;;;;;;;14.60;13.30;;;25.00;58.30;;;;;;222304;1261;23942;-52
2023/07/05 01:35:18;;;;;;;13.90;12.50;;;25.00;58.50;;;;;;222187;1263;24174;-54
2023/07/05 01:40:23;;;;;;;13.80;12.60;;;25.00;58.50;;;;;;222507;1256;22500;-53
2023/07/05 01:45:49;;;;;;;15.30;13.70;;;25.00;58.90;;;;;;222462;1263;22504;-54
2023/07/05 01:51:25;;;;;;;14.10;12.70;;;25.00;58.80;;;;;;221987;1266;23943;-55
2023/07/05 01:56:40;;;;;;;14.20;12.60;;;25.00;58.90;;;;;;222334;1263;22591;-51
2023/07/05 02:01:46;;;;;;;13.80;12.50;;;25.00;59.10;;;;;;222508;1266;22511;-53
2023/07/05 02:06:51;;;;;;;14.30;12.80;;;25.00;59.10;;;;;;222532;1264;22575;-53
2023/07/05 02:11:56;;;;;;;13.90;12.70;;;25.00;59.20;;;;;;222467;1263;23160;-54
2023/07/05 02:17:01;;;;;;;14.70;13.40;;;25.00;59.10;;;;;;222303;1261;245608;-49
2023/07/05 02:22:06;;;;;;;13.70;12.50;;;25.00;59.10;;;;;;222592;1254;22554;-55
2023/07/05 02:27:10;;;;;;;13.80;12.50;;;25.00;59.00;;;;;;222564;1257;22545;-53
2023/07/05 02:32:14;;;;;;;13.80;12.50;;;25.00;59.30;;;;;;222295;1260;22514;-53
2023/07/05 02:37:19;;;;;;;13.50;12.30;;;25.00;58.90;;;;;;222370;1268;23447;-52
2023/07/05 02:42:24;;;;;;;12.60;11.40;;;25.00;59.00;;;;;;225857;1254;25367;-53
2023/07/05 02:47:28;;;;;;;13.80;12.50;;;25.00;58.60;;;;;;227305;1261;22514;-53
2023/07/05 02:52:33;;;;;;;14.10;12.80;;;25.10;58.10;;;;;;224057;1266;22520;-51
2023/07/05 02:57:37;;;;;;;13.10;11.90;;;25.10;58.00;;;;;;222836;1263;24196;-53
2023/07/05 03:02:41;;;;;;;13.30;12.20;;;25.10;58.20;;;;;;222266;1268;24183;-53
2023/07/05 03:07:46;;;;;;;13.00;11.90;;;25.00;58.60;;;;;;222468;1264;22505;-51
2023/07/05 03:12:50;;;;;;;13.30;12.20;;;24.90;58.40;;;;;;222457;1260;22495;-51
2023/07/05 03:17:55;;;;;;;13.40;12.20;;;25.00;58.70;;;;;;222750;1261;22589;-54
2023/07/05 03:22:59;;;;;;;12.50;11.30;;;24.90;58.50;;;;;;222291;1264;22631;-52
2023/07/05 03:28:04;;;;;;;12.60;11.50;;;24.90;58.50;;;;;;222629;1247;22595;-54
2023/07/05 03:33:08;;;;;;;13.50;12.20;;;24.90;58.70;;;;;;222667;1261;24232;-51
2023/07/05 03:38:13;;;;;;;12.40;11.30;;;24.90;58.60;;;;;;222625;1266;23861;-54
2023/07/05 03:43:17;;;;;;;13.00;11.90;;;24.90;59.10;;;;;;222604;1250;22527;-53
2023/07/05 03:48:21;;;;;;;13.20;12.00;;;24.90;59.30;;;;;;222438;1265;23527;-53
2023/07/05 03:53:26;;;;;;;13.50;12.30;;;24.90;58.60;;;;;;222521;1254;22988;-55
2023/07/05 03:58:31;;;;;;;13.00;11.80;;;24.90;59.20;;;;;;222479;1260;22514;-51
2023/07/05 04:03:35;;;;;;;12.50;11.40;;;24.90;59.10;;;;;;222632;1261;22857;-52
2023/07/05 04:08:40;;;;;;;13.00;11.90;;;24.90;59.00;;;;;;222490;1267;22559;-51
2023/07/05 04:13:46;;;;;;;12.70;11.50;;;24.90;59.00;;;;;;222443;1266;24310;-52
2023/07/05 04:18:52;;;;;;;12.70;11.50;;;24.90;58.90;;;;;;222428;1260;22620;-52
2023/07/05 04:23:58;;;;;;;12.20;11.10;;;25.00;58.90;;;;;;222270;1268;24202;-52
2023/07/05 04:29:03;;;;;;;13.10;11.90;;;24.90;58.90;;;;;;222589;1260;24164;-52
2023/07/05 04:34:07;;;;;;;12.50;11.30;;;25.00;58.90;;;;;;222537;1268;22569;-55
2023/07/05 04:39:11;;;;;;;12.20;11.10;;;25.00;59.20;;;;;;222537;1254;22512;-53
2023/07/05 04:44:15;;;;;;;12.60;11.50;;;25.00;58.90;;;;;;222339;1254;24184;-52
2023/07/05 04:49:19;;;;;;;12.80;11.70;;;25.00;58.90;;;;;;227144;1261;22524;-53
2023/07/05 04:54:24;;;;;;;12.60;11.50;;;25.10;58.50;;;;;;222733;1267;25323;-53
2023/07/05 04:59:29;;;;;;;12.60;11.40;;;25.20;58.50;;;;;;224144;1264;22511;-53
2023/07/05 05:04:33;;;;;;;13.60;12.30;;;25.20;58.70;;;;;;223214;1263;24189;-52
2023/07/05 05:09:40;;;;;;;13.00;11.90;;;25.20;58.60;;;;;;226566;1264;24224;-54
2023/07/05 05:14:44;;;;;;;11.90;10.70;;;25.30;58.50;;;;;;223135;1266;22645;-56
2023/07/05 05:19:48;;;;;;;13.00;11.70;;;25.20;58.70;;;;;;222489;1257;25116;-54
2023/07/05 05:24:52;;;;;;;14.20;11.90;;;25.10;58.90;;;;;;222416;1262;23878;-52
2023/07/05 05:29:57;;;;;;;14.70;12.00;;;25.10;58.80;;;;;;222412;1261;25330;-51
2023/07/05 05:35:01;;;;;;;14.90;11.20;;;25.10;59.40;;;;;;222567;1244;26509;-55
2023/07/05 05:40:07;;;;;;;12.50;11.40;;;25.10;60.00;;;;;;222353;1254;24196;-54
2023/07/05 05:45:12;;;;;;;12.30;11.30;;;25.10;59.50;;;;;;222472;1268;24002;-54
2023/07/05 05:50:19;;;;;;;12.20;11.10;;;25.10;59.40;;;;;;222410;1260;22794;-52
2023/07/05 05:55:23;;;;;;;17.20;14.70;;;25.10;59.70;;;;;;222349;1264;22511;-52
2023/07/05 06:00:28;;;;;;;18.10;16.10;;;24.80;58.40;;;;;;222352;1260;23917;-51
2023/07/05 06:05:34;;;;;;;20.20;17.80;;;24.70;57.70;;;;;;222098;1263;24180;-51
2023/07/05 06:10:38;;;;;;;21.90;18.60;;;24.60;57.00;;;;;;222583;1267;22517;-52
2023/07/05 06:15:43;;;;;;;22.90;20.20;;;24.30;56.30;;;;;;222691;1256;24193;-53
2023/07/05 06:20:56;;;;;;;23.70;20.70;;;24.20;55.90;;;;;;222439;1251;24180;-51
2023/07/05 06:26:00;;;;;;;24.10;21.60;;;24.10;55.80;;;;;;222593;1266;22514;-52
2023/07/05 06:31:06;;;;;;;27.20;22.40;;;24.10;56.00;;;;;;222453;1261;25141;-50
2023/07/05 06:36:11;;;;;;;25.00;22.40;;;24.20;56.00;;;;;;222514;1263;25385;-54
2023/07/05 06:41:15;;;;;;;25.40;22.40;;;24.10;56.20;;;;;;222421;1261;25571;-53
2023/07/05 06:46:19;;;;;;;25.70;22.20;;;24.10;56.30;;;;;;222224;1263;22559;-49
2023/07/05 06:51:24;;;;;;;26.90;21.00;;;24.10;56.70;;;;;;222337;1268;24857;-51
2023/07/05 06:56:28;;;;;;;23.80;20.20;;;24.20;56.50;;;;;;222261;1254;22524;-51
2023/07/05 07:01:32;;;;;;;24.20;21.30;;;24.20;57.00;;;;;;222302;1263;24185;-52
2023/07/05 07:06:38;;;;;;;23.30;20.90;;;24.20;56.80;;;;;;222310;1263;23918;-50
2023/07/05 07:11:42;;;;;;;23.40;20.20;;;24.30;57.00;;;;;;222421;1264;27726;-51
2023/07/05 07:16:47;;;;;;;22.80;20.10;;;24.30;57.20;;;;;;222053;1266;22615;-51
2023/07/05 07:21:52;;;;;;;21.30;19.10;;;24.30;57.20;;;;;;222228;1264;22634;-50
2023/07/05 07:26:56;;;;;;;22.40;19.20;;;24.50;57.40;;;;;;222250;1261;22511;-51
2023/07/05 07:32:02;;;;;;;21.40;19.00;;;24.60;57.70;;;;;;222164;1244;22872;-52
2023/07/05 07:37:06;;;;;;;20.70;18.60;;;24.70;57.30;;;;;;222319;1260;23764;-48
2023/07/05 07:42:10;;;;;;;21.20;18.50;;;24.70;57.30;;;;;;222350;1254;22630;-47
2023/07/05 07:47:14;;;;;;;20.60;16.80;;;24.70;57.50;;;;;;222189;1252;23776;-49
2023/07/05 07:52:19;;;;;;;18.10;15.80;;;24.70;57.70;;;;;;222283;1260;24243;-47
2023/07/05 07:57:23;;;;;;;21.50;16.10;;;24.80;58.10;;;;;;222127;1261;24225;-48
2023/07/05 08:02:28;;;;;;;17.70;15.90;;;24.90;57.90;;;;;;222153;1254;22642;-50
2023/07/05 08:07:32;;;;;;;20.50;15.00;;;25.00;57.90;;;;;;222176;1254;24199;-46
2023/07/05 08:12:36;;;;;;;16.70;14.60;;;25.00;57.80;;;;;;222492;1254;22530;-47
2023/07/05 08:17:40;;;;;;;17.30;13.70;;;25.00;58.00;;;;;;222148;1262;24209;-53
2023/07/05 08:22:45;;;;;;;15.40;13.60;;;25.10;57.90;;;;;;222287;1261;22564;-54
2023/07/05 08:27:49;;;;;;;20.30;14.20;;;25.30;58.00;;;;;;222148;1263;24241;-52
2023/07/05 08:32:53;;;;;;;14.60;12.00;;;25.30;57.80;;;;;;222208;1264;22585;-55
2023/07/05 08:37:57;;;;;;;19.30;12.50;;;25.40;57.90;;;;;;222405;1260;22748;-48
2023/07/05 08:43:18;;;;;;;17.20;11.00;;;25.40;57.60;;;;;;222127;1260;24144;-48
2023/07/05 08:48:22;;;;;;;13.40;11.20;;;25.50;57.30;;;;;;222517;1254;25265;-54
2023/07/05 08:53:26;;;;;;;19.10;10.20;;;25.50;57.20;;;;;;222566;1264;24321;-53
2023/07/05 08:58:43;;;;;;;17.20;10.80;;;25.60;56.70;;;;;;222196;1248;25214;-55
2023/07/05 09:03:48;;;;;;;13.00;9.50;;;25.70;56.80;;;;;;222006;1254;25477;-52
2023/07/05 09:09:30;;;;;;;14.00;8.80;;;25.80;55.60;;;;;;222196;1266;24185;-54
2023/07/05 09:15:01;;;;;;;11.30;8.20;;;25.80;54.40;;;;;;220765;1270;25291;-52
2023/07/05 09:20:40;;;;;;;12.70;8.90;;;25.80;53.00;;;;;;220703;1260;22590;-54
2023/07/05 09:25:50;;;;;;;9.10;8.10;;;26.00;53.10;;;;;;220721;1264;22826;-55
2023/07/05 09:31:01;;;;;;;12.10;8.50;;;26.00;53.20;;;;;;220562;1269;22635;-55
2023/07/05 09:36:13;;;;;;;11.70;7.90;;;26.10;53.10;;;;;;220745;1261;25329;-53
2023/07/05 09:41:28;;;;;;;11.00;8.20;;;26.00;52.40;;;;;;220671;1272;22517;-47
2023/07/05 09:46:36;;;;;;;10.30;7.70;;;26.10;52.00;;;;;;221002;1273;22535;-49
2023/07/05 09:51:44;;;;;;;9.20;7.70;;;26.20;52.00;;;;;;222024;1264;23526;-48
2023/07/05 09:57:02;;;;;;;10.40;7.80;;;26.30;49.50;;;;;;222334;1248;22512;-47
2023/07/05 10:02:12;;;;;;;9.60;6.60;;;26.30;49.80;;;;;;222369;1254;24291;-47
2023/07/05 10:07:19;;;;;;;6.60;5.70;;;26.40;48.70;;;;;;222370;1249;24209;-55
2023/07/05 10:12:40;;;;;;;8.60;6.20;;;26.50;47.90;;;;;;222188;1253;22583;-55
2023/07/05 10:17:44;;;;;;;7.70;5.90;;;26.50;47.00;;;;;;222660;1260;23132;-53
2023/07/05 10:23:01;;;;;;;6.90;5.60;;;26.70;47.40;;;;;;221916;1260;22546;-54
2023/07/05 10:28:06;;;;;;;7.30;5.20;;;26.80;48.50;;;;;;225048;1253;22757;-46
2023/07/05 10:33:23;;;;;;;6.80;5.10;;;26.90;47.70;;;;;;222092;1251;22591;-45
2023/07/05 10:38:29;;;;;;;5.90;5.30;;;26.90;47.80;;;;;;222270;1266;24282;-47
2023/07/05 10:43:33;;;;;;;9.20;5.80;;;26.90;48.20;;;;;;221875;1267;22516;-47
2023/07/05 10:48:43;;;;;;;8.90;5.10;;;26.90;47.60;;;;;;222201;1261;25405;-47
2023/07/05 10:53:53;;;;;;;7.60;5.40;;;27.00;48.20;;;;;;222033;1256;24669;-47
2023/07/05 10:59:27;;;;;;;6.10;5.50;;;27.00;48.10;;;;;;222059;1260;25525;-46
2023/07/05 11:04:40;;;;;;;10.80;5.60;;;27.10;47.50;;;;;;221970;1257;22621;-50
2023/07/05 11:09:45;;;;;;;8.50;5.90;;;27.20;48.60;;;;;;222188;1268;23781;-54
2023/07/05 11:14:51;;;;;;;5.80;5.20;;;27.20;49.10;;;;;;222154;1264;25478;-49
2023/07/05 11:19:55;;;;;;;7.80;5.20;;;27.20;48.90;;;;;;222340;1267;22589;-52
2023/07/05 11:24:59;;;;;;;6.40;5.60;;;27.20;49.40;;;;;;221997;1250;23084;-50
2023/07/05 11:30:25;;;;;;;10.60;5.40;;;27.20;49.60;;;;;;222655;1267;24445;-53
2023/07/05 11:35:46;;;;;;;8.20;5.60;;;27.20;50.10;;;;;;222522;1268;22515;-55
2023/07/05 11:41:04;;;;;;;7.10;5.20;;;27.30;51.00;;;;;;222336;1267;22683;-58
2023/07/05 11:46:38;;;;;;;5.70;5.20;;;27.40;50.40;;;;;;222192;1263;23164;-58
2023/07/05 11:51:43;;;;;;;6.70;5.00;;;27.50;50.60;;;;;;222598;1244;22656;-58
2023/07/05 11:56:51;;;;;;;7.10;5.30;;;27.40;50.10;;;;;;222730;1268;25495;-59
2023/07/05 12:01:58;;;;;;;9.60;4.70;;;27.40;50.80;;;;;;222752;1256;22545;-58
2023/07/05 12:07:03;;;;;;;7.30;4.70;;;27.30;50.90;;;;;;222483;1260;26573;-58
2023/07/05 12:12:13;;;;;;;4.60;4.20;;;27.30;50.60;;;;;;222578;1256;25207;-57
2023/07/05 12:17:24;;;;;;;5.30;4.00;;;27.30;51.30;;;;;;222468;1254;25262;-56
2023/07/05 12:22:28;;;;;;;5.20;4.60;;;27.20;52.70;;;;;;222508;1260;22526;-55
2023/07/05 12:27:32;;;;;;;5.30;3.90;;;27.00;54.70;;;;;;222690;1260;22647;-53
2023/07/05 12:32:37;;;;;;;5.80;4.20;;;26.80;56.00;;;;;;222255;1260;22511;-54
2023/07/05 12:37:42;;;;;;;6.70;4.50;;;26.80;56.60;;;;;;222799;1260;26621;-54
2023/07/05 12:42:53;;;;;;;4.80;4.30;;;26.50;57.10;;;;;;222759;1260;22628;-53
2023/07/05 12:48:12;;;;;;;6.50;5.20;;;26.30;58.10;;;;;;222753;1268;23874;-57
2023/07/05 12:53:22;;;;;;;8.40;5.10;;;26.30;57.50;;;;;;222733;1267;22633;-56
2023/07/05 12:58:27;;;;;;;8.60;4.50;;;26.40;58.00;;;;;;222560;1263;25432;-54
2023/07/05 13:03:34;;;;;;;7.70;4.10;;;26.10;57.00;;;;;;222428;1260;22636;-54
2023/07/05 13:08:46;;;;;;;4.70;4.10;;;26.00;57.40;;;;;;222528;1260;22552;-55
2023/07/05 13:14:07;;;;;;;4.80;3.90;;;26.00;57.00;;;;;;222589;1264;22599;-53
2023/07/05 13:19:13;;;;;;;4.50;3.60;;;26.00;57.70;;;;;;222629;1260;25582;-54
2023/07/05 13:24:26;;;;;;;8.60;4.00;;;26.00;57.50;;;;;;222664;1263;25597;-53
2023/07/05 13:29:35;;;;;;;5.00;4.00;;;25.90;58.00;;;;;;222451;1253;24266;-54
2023/07/05 13:34:40;;;;;;;5.60;4.80;;;25.90;58.10;;;;;;222466;1247;22510;-53
2023/07/05 13:39:44;;;;;;;11.30;4.80;;;25.80;57.90;;;;;;222465;1266;22636;-52
2023/07/05 13:44:49;;;;;;;7.50;4.80;;;25.80;58.70;;;;;;222520;1260;22511;-54
2023/07/05 13:49:54;;;;;;;7.10;5.70;;;25.70;59.60;;;;;;222616;1254;24195;-53
2023/07/05 13:55:06;;;;;;;6.70;4.30;;;25.60;60.40;;;;;;222799;1260;22509;-54
2023/07/05 14:00:13;;;;;;;7.40;4.60;;;25.70;61.10;;;;;;222518;1253;22515;-51
2023/07/05 14:05:17;;;;;;;4.60;4.20;;;25.80;61.10;;;;;;222639;1247;22839;-53
2023/07/05 14:10:24;;;;;;;4.60;4.20;;;25.80;62.30;;;;;;222580;1245;22526;-54
2023/07/05 14:15:40;;;;;;;6.20;5.20;;;26.00;61.60;;;;;;222544;1254;235807;-52
2023/07/05 14:20:50;;;;;;;6.40;5.60;;;26.00;62.10;;;;;;222556;1257;22514;-54
2023/07/05 14:25:55;;;;;;;7.60;5.10;;;25.90;63.20;;;;;;222647;1249;24241;-52
2023/07/05 14:30:59;;;;;;;26.10;6.70;;;26.10;63.20;;;;;;222419;1253;22504;-54
2023/07/05 14:36:03;;;;;;;14.60;5.60;;;26.30;63.60;;;;;;222417;1253;22521;-53
2023/07/05 14:41:14;;;;;;;9.40;5.80;;;26.20;63.60;;;;;;222129;1254;22510;-54
2023/07/05 14:46:19;;;;;;;8.80;5.10;;;26.20;64.70;;;;;;222344;1260;24234;-51
2023/07/05 14:51:24;;;;;;;8.10;4.60;;;26.50;63.80;;;;;;222655;1254;25390;-51
2023/07/05 14:56:28;;;;;;;6.50;4.60;;;26.20;64.10;;;;;;222688;1260;22519;-53
2023/07/05 15:01:33;;;;;;;7.60;4.40;;;26.20;65.10;;;;;;222528;1260;25430;-53
2023/07/05 15:06:37;;;;;;;7.70;4.60;;;26.30;65.10;;;;;;222789;1260;22508;-55
2023/07/05 15:11:42;;;;;;;6.10;4.90;;;26.50;64.40;;;;;;222550;1261;22516;-56
2023/07/05 15:16:46;;;;;;;12.70;4.80;;;26.40;64.90;;;;;;222434;1263;23882;-54
2023/07/05 15:21:50;;;;;;;11.80;4.40;;;26.30;65.60;;;;;;222529;1260;24308;-55
2023/07/05 15:26:55;;;;;;;8.50;4.10;;;26.10;66.90;;;;;;222610;1260;22539;-51
2023/07/05 15:31:59;;;;;;;4.30;3.70;;;26.20;66.10;;;;;;222695;1260;22629;-50
2023/07/05 15:37:05;;;;;;;10.20;4.00;;;26.20;65.70;;;;;;222381;1259;22517;-49
2023/07/05 15:42:09;;;;;;;8.20;4.10;;;26.10;66.30;;;;;;222461;1260;22638;-49
2023/07/05 15:47:14;;;;;;;13.20;4.30;;;26.10;66.00;;;;;;222529;1260;22505;-50
2023/07/05 15:52:19;;;;;;;6.60;4.90;;;25.90;66.00;;;;;;222545;1253;23305;-49
2023/07/05 15:57:24;;;;;;;6.30;4.20;;;25.90;65.50;;;;;;222732;1250;24237;-48
2023/07/05 16:02:38;;;;;;;5.60;3.80;;;25.90;64.60;;;;;;222230;1259;22710;-51
2023/07/05 16:07:43;;;;;;;7.00;4.10;;;25.90;64.30;;;;;;222695;1260;22518;-48
2023/07/05 16:12:50;;;;;;;6.60;3.80;;;25.80;64.70;;;;;;222791;1260;25521;-50
2023/07/05 16:17:55;;;;;;;4.30;3.60;;;25.80;64.20;;;;;;222826;1260;22508;-49
2023/07/05 16:23:00;;;;;;;3.70;3.40;;;26.00;64.00;;;;;;222673;1254;23516;-49
2023/07/05 16:28:12;;;;;;;6.80;3.70;;;26.10;63.40;;;;;;222529;1244;22511;-49
2023/07/05 16:33:16;;;;;;;5.00;4.10;;;26.20;64.20;;;;;;222785;1256;22504;-50
2023/07/05 16:38:24;;;;;;;9.40;3.70;;;26.20;64.00;;;;;;222644;1247;22637;-53
2023/07/05 16:43:29;;;;;;;4.30;3.50;;;26.10;63.90;;;;;;222763;1260;25949;-53
2023/07/05 16:48:35;;;;;;;12.00;4.30;;;25.80;65.10;;;;;;222665;1256;24239;-52
2023/07/05 16:53:41;;;;;;;7.40;3.90;;;25.70;65.20;;;;;;227206;1257;26555;-50
2023/07/05 16:58:46;;;;;;;4.80;4.20;;;25.70;66.00;;;;;;222580;1263;24370;-53
2023/07/05 17:03:52;;;;;;;5.90;3.90;;;25.50;66.10;;;;;;222584;1257;25983;-48
2023/07/05 17:08:56;;;;;;;4.90;4.40;;;25.30;66.40;;;;;;222589;1254;25207;-51
2023/07/05 17:14:01;;;;;;;8.90;3.70;;;25.20;66.50;;;;;;222461;1254;24335;-50
2023/07/05 17:19:05;;;;;;;3.70;3.40;;;25.00;66.90;;;;;;222604;1261;22629;-51
2023/07/05 17:24:10;;;;;;;6.00;3.80;;;24.90;67.70;;;;;;222610;1248;22507;-53
2023/07/05 17:29:15;;;;;;;4.70;4.20;;;24.80;68.50;;;;;;222766;1260;25322;-52
2023/07/05 17:34:22;;;;;;;5.90;3.90;;;24.70;68.80;;;;;;222753;1261;22521;-52
2023/07/05 17:39:27;;;;;;;11.60;4.20;;;24.70;68.90;;;;;;222742;1260;22493;-52
2023/07/05 17:44:33;;;;;;;7.20;4.30;;;24.80;68.10;;;;;;222615;1259;22549;-54
2023/07/05 17:49:38;;;;;;;5.80;3.70;;;24.90;67.90;;;;;;222566;1260;24237;-49
2023/07/05 17:54:43;;;;;;;4.10;3.60;;;25.00;68.00;;;;;;222574;1260;22853;-52
2023/07/05 17:59:48;;;;;;;7.60;4.00;;;25.10;67.60;;;;;;222413;1260;22515;-53
2023/07/05 18:04:55;;;;;;;5.40;4.50;;;25.10;67.10;;;;;;222867;1247;22523;-55
2023/07/05 18:10:00;;;;;;;5.00;4.20;;;25.10;67.00;;;;;;222451;1254;23423;-53
2023/07/05 18:15:06;;;;;;;5.20;3.50;;;25.10;66.90;;;;;;222530;1260;22512;-51
2023/07/05 18:20:14;;;;;;;4.40;3.30;;;25.10;66.60;;;;;;222791;1253;22501;-53
2023/07/05 18:25:20;;;;;;;4.00;3.50;;;25.10;66.70;;;;;;222710;1260;24171;-53
2023/07/05 18:30:25;;;;;;;3.70;3.30;;;25.00;66.60;;;;;;222576;1257;23936;-53
2023/07/05 18:35:30;;;;;;;7.20;3.20;;;24.90;66.40;;;;;;222411;1254;26545;-53
2023/07/05 18:40:35;;;;;;;8.10;3.50;;;24.90;66.00;;;;;;222798;1260;25394;-50
2023/07/05 18:45:44;;;;;;;6.40;3.20;;;24.90;65.60;;;;;;222594;1257;24271;-52
2023/07/05 18:50:50;;;;;;;5.90;3.20;;;24.90;64.80;;;;;;222562;1263;22510;-52
2023/07/05 18:56:03;;;;;;;3.70;2.80;;;24.70;64.40;;;;;;222642;1257;25587;-52
2023/07/05 19:01:20;;;;;;;5.10;2.90;;;24.60;63.90;;;;;;222442;1265;25423;-53
2023/07/05 19:06:26;;;;;;;3.80;3.40;;;24.50;63.90;;;;;;222356;1257;24415;-53
2023/07/05 19:11:32;;;;;;;3.00;2.70;;;24.70;63.60;;;;;;222652;1263;24167;-54
2023/07/05 19:16:37;;;;;;;4.80;2.60;;;24.80;62.60;;;;;;222767;1260;22514;-49
2023/07/05 19:21:44;;;;;;;7.00;3.00;;;24.80;62.30;;;;;;222605;1261;25454;-49
2023/07/05 19:26:49;;;;;;;5.90;2.80;;;24.80;62.20;;;;;;222604;1266;24117;-50
2023/07/05 19:31:53;;;;;;;8.10;3.10;;;24.80;62.40;;;;;;222629;1248;25348;-54
2023/07/05 19:36:58;;;;;;;4.20;3.10;;;24.80;63.00;;;;;;222699;1260;23812;-49
2023/07/05 19:42:04;;;;;;;3.90;3.00;;;25.00;62.20;;;;;;222958;1260;25293;-53
2023/07/05 19:47:09;;;;;;;7.60;3.30;;;25.10;62.30;;;;;;222563;1260;24192;-50
2023/07/05 19:52:18;;;;;;;7.90;3.60;;;25.10;62.10;;;;;;222644;1266;24215;-54
2023/07/05 19:57:24;;;;;;;115.10;74.50;;;25.40;62.10;;;;;;222617;1258;25398;-51
2023/07/05 20:02:28;;;;;;;428.60;226.10;;;25.40;62.00;;;;;;222554;1261;25252;-49
2023/07/05 20:07:33;;;;;;;505.10;256.00;;;25.60;62.20;;;;;;222099;1253;22771;-51
2023/07/05 20:12:39;;;;;;;268.90;125.40;;;25.60;62.00;;;;;;222084;1254;24726;-51
2023/07/05 20:17:45;;;;;;;266.90;127.80;;;25.40;61.80;;;;;;222247;1257;22521;-51
2023/07/05 20:22:49;;;;;;;148.20;66.40;;;25.40;63.00;;;;;;221970;1263;22575;-50
2023/07/05 20:27:54;;;;;;;137.00;58.90;;;25.40;62.60;;;;;;222197;1263;22515;-49
2023/07/05 20:33:02;;;;;;;128.00;54.00;;;25.40;66.20;;;;;;222068;1263;24164;-50
2023/07/05 20:38:08;;;;;;;131.00;56.40;;;25.50;65.20;;;;;;222295;1259;22511;-53
2023/07/05 20:43:14;;;;;;;91.20;42.60;;;25.50;64.70;;;;;;222294;1255;22501;-51
2023/07/05 20:48:18;;;;;;;85.20;35.70;;;25.50;64.90;;;;;;222247;1257;22566;-49
2023/07/05 20:53:24;;;;;;;69.00;30.70;;;25.50;65.40;;;;;;222104;1266;23853;-52
2023/07/05 20:58:35;;;;;;;57.60;24.70;;;25.50;65.20;;;;;;222394;1254;23990;-50
2023/07/05 21:03:40;;;;;;;44.10;20.60;;;25.60;65.30;;;;;;222067;1268;22513;-49
2023/07/05 21:08:45;;;;;;;39.10;16.80;;;25.60;65.10;;;;;;222556;1260;22833;-49
2023/07/05 21:13:49;;;;;;;31.50;15.00;;;25.60;65.40;;;;;;222512;1247;24105;-52
2023/07/05 21:18:53;;;;;;;27.50;13.00;;;25.70;65.20;;;;;;222461;1256;24225;-52
2023/07/05 21:23:58;;;;;;;22.10;10.70;;;25.70;65.20;;;;;;222617;1266;25392;-52
2023/07/05 21:29:07;;;;;;;20.30;10.10;;;25.70;65.30;;;;;;222614;1261;25454;-51
2023/07/05 21:34:12;;;;;;;13.50;8.50;;;25.70;65.30;;;;;;222597;1260;22511;-53
2023/07/05 21:39:16;;;;;;;13.90;8.20;;;25.70;65.30;;;;;;222504;1266;22655;-49
2023/07/05 21:44:20;;;;;;;14.00;7.50;;;25.60;65.20;;;;;;222371;1265;22586;-54
2023/07/05 21:49:25;;;;;;;10.70;6.20;;;25.50;65.30;;;;;;222634;1260;23923;-52
2023/07/05 21:54:29;;;;;;;11.20;6.40;;;25.40;65.50;;;;;;222242;1267;24793;-48
2023/07/05 21:59:34;;;;;;;9.40;5.70;;;25.50;65.30;;;;;;222628;1266;23789;-52
2023/07/05 22:04:38;;;;;;;10.10;5.70;;;25.50;63.60;;;;;;222628;1263;22722;-50
2023/07/05 22:09:43;;;;;;;9.40;5.60;;;25.70;64.40;;;;;;222461;1261;23868;-51
2023/07/05 22:14:47;;;;;;;10.40;5.30;;;25.80;63.90;;;;;;222692;1268;22527;-52
2023/07/05 22:20:12;;;;;;;6.30;4.80;;;25.80;63.30;;;;;;222549;1266;24212;-51
2023/07/05 22:25:17;;;;;;;8.10;4.90;;;25.70;63.10;;;;;;222600;1253;24193;-51
2023/07/05 22:30:21;;;;;;;6.00;4.30;;;25.70;62.90;;;;;;222257;1256;24295;-48
2023/07/05 22:35:28;;;;;;;5.80;4.20;;;25.70;62.60;;;;;;222294;1263;22498;-51
2023/07/05 22:40:33;;;;;;;5.90;4.50;;;25.70;62.40;;;;;;222216;1257;22547;-57
2023/07/05 22:45:37;;;;;;;5.00;3.60;;;25.70;62.80;;;;;;222311;1251;22718;-54
2023/07/05 22:50:43;;;;;;;5.20;4.50;;;25.50;62.10;;;;;;227637;1266;22504;-57
2023/07/05 22:55:47;;;;;;;6.00;3.80;;;25.60;61.10;;;;;;222610;1257;22508;-56
2023/07/05 23:01:05;;;;;;;6.00;4.20;;;25.60;60.70;;;;;;222592;1268;22565;-56
2023/07/05 23:06:11;;;;;;;4.30;3.90;;;25.40;60.40;;;;;;222557;1266;22620;-57
2023/07/05 23:11:15;;;;;;;6.00;3.20;;;25.40;60.90;;;;;;222239;1268;23572;-55
2023/07/05 23:16:19;;;;;;;4.40;3.70;;;25.40;60.10;;;;;;223853;1263;22515;-56
2023/07/05 23:21:23;;;;;;;5.10;4.10;;;25.40;59.80;;;;;;223199;1260;25252;-56
2023/07/05 23:26:27;;;;;;;7.30;4.10;;;25.40;59.40;;;;;;223355;1264;22524;-56
2023/07/05 23:31:41;;;;;;;9.00;3.90;;;25.40;59.60;;;;;;224586;1266;24234;-56
2023/07/05 23:36:47;;;;;;;5.40;3.60;;;25.40;59.00;;;;;;222492;1266;22652;-56
2023/07/05 23:41:51;;;;;;;8.30;3.90;;;25.40;59.10;;;;;;222340;1248;25611;-57
2023/07/05 23:46:56;;;;;;;5.00;4.50;;;25.30;59.10;;;;;;222523;1268;24728;-54
2023/07/05 23:52:00;;;;;;;4.40;3.30;;;25.30;59.00;;;;;;222307;1268;22572;-56
2023/07/05 23:57:05;;;;;;;7.70;3.80;;;25.30;58.90;;;;;;222171;1263;24186;-58
